sensor_id;sensor_type;location;lat;lon;timestamp;P1;durP1;ratioP1;P2;durP2;ratioP2
54745;SDS011;40640;48.130;11.356;2023-02-28T00:02:08;5.72;;;2.60;;
54745;SDS011;40640;48.130;11.356;2023-02-28T00:06:11;6.07;;;3.47;;
54745;SDS011;40640;48.130;11.356;2023-02-28T00:10:16;4.93;;;2.67;;
54745;SDS011;40640;48.130;11.356;2023-02-28T00:14:22;6.43;;;2.60;;
54745;SDS011;40640;48.130;11.356;2023-02-28T00:18:24;7.95;;;3.30;;
54745;SDS011;40640;48.130;11.356;2023-02-28T00:22:29;5.65;;;3.15;;
54745;SDS011;40640;48.130;11.356;2023-02-28T00:26:34;6.28;;;2.88;;
54745;SDS011;40640;48.130;11.356;2023-02-28T00:30:36;5.07;;;3.22;;
54745;SDS011;40640;48.130;11.356;2023-02-28T00:34:39;7.97;;;3.33;;
54745;SDS011;40640;48.130;11.356;2023-02-28T00:38:42;9.57;;;3.50;;
54745;SDS011;40640;48.130;11.356;2023-02-28T00:42:46;6.35;;;3.13;;
54745;SDS011;40640;48.130;11.356;2023-02-28T00:46:49;6.43;;;3.53;;
54745;SDS011;40640;48.130;11.356;2023-02-28T00:50:52;6.78;;;3.60;;
54745;SDS011;40640;48.130;11.356;2023-02-28T00:54:55;5.60;;;3.25;;
54745;SDS011;40640;48.130;11.356;2023-02-28T00:59:00;4.05;;;2.83;;
54745;SDS011;40640;48.130;11.356;2023-02-28T01:03:02;3.78;;;2.47;;
54745;SDS011;40640;48.130;11.356;2023-02-28T01:07:05;5.10;;;3.38;;
54745;SDS011;40640;48.130;11.356;2023-02-28T01:11:09;5.25;;;3.17;;
54745;SDS011;40640;48.130;11.356;2023-02-28T01:15:15;8.45;;;3.65;;
54745;SDS011;40640;48.130;11.356;2023-02-28T01:19:19;7.75;;;3.38;;
54745;SDS011;40640;48.130;11.356;2023-02-28T01:23:22;6.47;;;3.17;;
54745;SDS011;40640;48.130;11.356;2023-02-28T01:27:25;8.38;;;3.63;;
54745;SDS011;40640;48.130;11.356;2023-02-28T01:31:31;5.35;;;3.33;;
54745;SDS011;40640;48.130;11.356;2023-02-28T01:35:34;8.95;;;3.40;;
54745;SDS011;40640;48.130;11.356;2023-02-28T01:39:38;7.53;;;3.63;;
54745;SDS011;40640;48.130;11.356;2023-02-28T01:43:57;9.23;;;4.05;;
54745;SDS011;40640;48.130;11.356;2023-02-28T01:48:07;7.57;;;3.60;;
54745;SDS011;40640;48.130;11.356;2023-02-28T01:52:10;7.00;;;3.90;;
54745;SDS011;40640;48.130;11.356;2023-02-28T01:56:20;10.10;;;4.00;;
54745;SDS011;40640;48.130;11.356;2023-02-28T02:00:26;6.13;;;3.65;;
54745;SDS011;40640;48.130;11.356;2023-02-28T02:04:34;7.22;;;3.47;;
54745;SDS011;40640;48.130;11.356;2023-02-28T02:08:41;6.72;;;3.58;;
54745;SDS011;40640;48.130;11.356;2023-02-28T02:12:51;7.55;;;3.78;;
54745;SDS011;40640;48.130;11.356;2023-02-28T02:17:15;5.85;;;3.85;;
54745;SDS011;40640;48.130;11.356;2023-02-28T02:25:59;7.70;;;3.90;;
54745;SDS011;40640;48.130;11.356;2023-02-28T02:34:52;6.50;;;3.60;;
54745;SDS011;40640;48.130;11.356;2023-02-28T02:39:02;7.60;;;3.83;;
54745;SDS011;40640;48.130;11.356;2023-02-28T02:43:12;6.38;;;3.80;;
54745;SDS011;40640;48.130;11.356;2023-02-28T02:47:19;7.10;;;3.90;;
54745;SDS011;40640;48.130;11.356;2023-02-28T02:51:26;8.85;;;4.45;;
54745;SDS011;40640;48.130;11.356;2023-02-28T02:55:33;10.35;;;4.63;;
54745;SDS011;40640;48.130;11.356;2023-02-28T02:59:39;9.77;;;4.25;;
54745;SDS011;40640;48.130;11.356;2023-02-28T03:03:43;8.73;;;3.92;;
54745;SDS011;40640;48.130;11.356;2023-02-28T03:07:48;6.53;;;3.92;;
54745;SDS011;40640;48.130;11.356;2023-02-28T03:11:52;6.80;;;3.65;;
54745;SDS011;40640;48.130;11.356;2023-02-28T03:16:05;8.55;;;4.30;;
54745;SDS011;40640;48.130;11.356;2023-02-28T03:20:23;8.07;;;3.95;;
54745;SDS011;40640;48.130;11.356;2023-02-28T03:24:39;6.63;;;3.70;;
54745;SDS011;40640;48.130;11.356;2023-02-28T03:28:50;6.15;;;3.90;;
54745;SDS011;40640;48.130;11.356;2023-02-28T03:32:58;8.68;;;3.90;;
54745;SDS011;40640;48.130;11.356;2023-02-28T03:37:08;7.50;;;4.22;;
54745;SDS011;40640;48.130;11.356;2023-02-28T03:41:19;9.80;;;4.05;;
54745;SDS011;40640;48.130;11.356;2023-02-28T03:45:25;8.23;;;4.43;;
54745;SDS011;40640;48.130;11.356;2023-02-28T03:49:32;8.52;;;4.43;;
54745;SDS011;40640;48.130;11.356;2023-02-28T03:53:39;8.48;;;4.28;;
54745;SDS011;40640;48.130;11.356;2023-02-28T03:57:50;7.68;;;4.28;;
54745;SDS011;40640;48.130;11.356;2023-02-28T04:01:59;8.18;;;4.15;;
54745;SDS011;40640;48.130;11.356;2023-02-28T04:06:02;12.50;;;4.47;;
54745;SDS011;40640;48.130;11.356;2023-02-28T04:10:06;7.95;;;4.78;;
54745;SDS011;40640;48.130;11.356;2023-02-28T04:14:12;10.57;;;5.22;;
54745;SDS011;40640;48.130;11.356;2023-02-28T04:18:15;17.70;;;5.72;;
54745;SDS011;40640;48.130;11.356;2023-02-28T04:22:18;12.85;;;5.50;;
54745;SDS011;40640;48.130;11.356;2023-02-28T04:26:21;12.98;;;4.93;;
54745;SDS011;40640;48.130;11.356;2023-02-28T04:30:25;10.38;;;6.15;;
54745;SDS011;40640;48.130;11.356;2023-02-28T04:34:29;9.55;;;5.05;;
54745;SDS011;40640;48.130;11.356;2023-02-28T04:38:34;9.13;;;5.35;;
54745;SDS011;40640;48.130;11.356;2023-02-28T04:42:39;9.73;;;5.13;;
54745;SDS011;40640;48.130;11.356;2023-02-28T04:46:43;10.75;;;4.82;;
54745;SDS011;40640;48.130;11.356;2023-02-28T04:50:46;10.88;;;5.53;;
54745;SDS011;40640;48.130;11.356;2023-02-28T04:54:49;11.23;;;5.43;;
54745;SDS011;40640;48.130;11.356;2023-02-28T04:58:52;11.93;;;5.88;;
54745;SDS011;40640;48.130;11.356;2023-02-28T05:02:57;12.57;;;6.05;;
54745;SDS011;40640;48.130;11.356;2023-02-28T05:07:00;10.68;;;5.45;;
54745;SDS011;40640;48.130;11.356;2023-02-28T05:11:03;12.02;;;5.50;;
54745;SDS011;40640;48.130;11.356;2023-02-28T05:15:09;13.93;;;6.28;;
54745;SDS011;40640;48.130;11.356;2023-02-28T05:19:16;9.75;;;5.50;;
54745;SDS011;40640;48.130;11.356;2023-02-28T05:23:19;13.60;;;6.13;;
54745;SDS011;40640;48.130;11.356;2023-02-28T05:27:23;12.60;;;6.60;;
54745;SDS011;40640;48.130;11.356;2023-02-28T05:31:26;15.05;;;6.60;;
54745;SDS011;40640;48.130;11.356;2023-02-28T05:35:31;13.90;;;7.25;;
54745;SDS011;40640;48.130;11.356;2023-02-28T05:39:34;13.38;;;6.38;;
54745;SDS011;40640;48.130;11.356;2023-02-28T05:43:37;17.85;;;7.57;;
54745;SDS011;40640;48.130;11.356;2023-02-28T05:47:40;16.50;;;7.20;;
54745;SDS011;40640;48.130;11.356;2023-02-28T05:51:44;18.05;;;7.72;;
54745;SDS011;40640;48.130;11.356;2023-02-28T05:55:47;16.13;;;7.28;;
54745;SDS011;40640;48.130;11.356;2023-02-28T05:59:50;15.32;;;7.75;;
54745;SDS011;40640;48.130;11.356;2023-02-28T06:03:52;16.08;;;9.35;;
54745;SDS011;40640;48.130;11.356;2023-02-28T06:07:57;14.05;;;8.02;;
54745;SDS011;40640;48.130;11.356;2023-02-28T06:12:00;17.60;;;9.18;;
54745;SDS011;40640;48.130;11.356;2023-02-28T06:16:05;17.00;;;8.35;;
54745;SDS011;40640;48.130;11.356;2023-02-28T06:20:09;19.77;;;9.25;;
54745;SDS011;40640;48.130;11.356;2023-02-28T06:24:15;19.15;;;10.20;;
54745;SDS011;40640;48.130;11.356;2023-02-28T06:28:18;15.18;;;9.00;;
54745;SDS011;40640;48.130;11.356;2023-02-28T06:32:21;17.65;;;9.48;;
54745;SDS011;40640;48.130;11.356;2023-02-28T06:36:24;14.70;;;8.57;;
54745;SDS011;40640;48.130;11.356;2023-02-28T06:40:28;18.15;;;10.05;;
54745;SDS011;40640;48.130;11.356;2023-02-28T06:44:33;21.00;;;11.05;;
54745;SDS011;40640;48.130;11.356;2023-02-28T06:48:37;20.52;;;10.55;;
54745;SDS011;40640;48.130;11.356;2023-02-28T06:52:40;23.25;;;10.52;;
54745;SDS011;40640;48.130;11.356;2023-02-28T06:56:44;22.95;;;10.65;;
54745;SDS011;40640;48.130;11.356;2023-02-28T07:00:50;22.60;;;10.80;;
54745;SDS011;40640;48.130;11.356;2023-02-28T07:04:53;29.48;;;11.02;;
54745;SDS011;40640;48.130;11.356;2023-02-28T07:08:56;20.58;;;11.85;;
54745;SDS011;40640;48.130;11.356;2023-02-28T07:13:00;24.92;;;11.50;;
54745;SDS011;40640;48.130;11.356;2023-02-28T07:17:03;19.42;;;9.50;;
54745;SDS011;40640;48.130;11.356;2023-02-28T07:21:07;29.70;;;11.50;;
54745;SDS011;40640;48.130;11.356;2023-02-28T07:25:11;19.97;;;10.63;;
54745;SDS011;40640;48.130;11.356;2023-02-28T07:29:15;27.80;;;10.82;;
54745;SDS011;40640;48.130;11.356;2023-02-28T07:33:18;19.38;;;8.68;;
54745;SDS011;40640;48.130;11.356;2023-02-28T07:37:21;24.92;;;12.48;;
54745;SDS011;40640;48.130;11.356;2023-02-28T07:41:24;20.80;;;11.23;;
54745;SDS011;40640;48.130;11.356;2023-02-28T07:45:30;22.85;;;11.75;;
54745;SDS011;40640;48.130;11.356;2023-02-28T07:49:35;22.50;;;8.88;;
54745;SDS011;40640;48.130;11.356;2023-02-28T07:53:39;23.45;;;12.43;;
54745;SDS011;40640;48.130;11.356;2023-02-28T07:57:42;23.75;;;11.98;;
54745;SDS011;40640;48.130;11.356;2023-02-28T08:01:47;20.83;;;10.48;;
54745;SDS011;40640;48.130;11.356;2023-02-28T08:05:51;18.20;;;8.63;;
54745;SDS011;40640;48.130;11.356;2023-02-28T08:09:55;25.08;;;12.93;;
54745;SDS011;40640;48.130;11.356;2023-02-28T08:13:57;26.02;;;10.18;;
54745;SDS011;40640;48.130;11.356;2023-02-28T08:18:02;18.10;;;10.20;;
54745;SDS011;40640;48.130;11.356;2023-02-28T08:22:05;23.35;;;12.77;;
54745;SDS011;40640;48.130;11.356;2023-02-28T08:26:08;25.45;;;11.93;;
54745;SDS011;40640;48.130;11.356;2023-02-28T08:30:12;26.10;;;12.10;;
54745;SDS011;40640;48.130;11.356;2023-02-28T08:34:18;19.73;;;11.40;;
54745;SDS011;40640;48.130;11.356;2023-02-28T08:38:21;23.02;;;12.00;;
54745;SDS011;40640;48.130;11.356;2023-02-28T08:42:24;21.92;;;11.25;;
54745;SDS011;40640;48.130;11.356;2023-02-28T08:46:26;21.30;;;10.88;;
54745;SDS011;40640;48.130;11.356;2023-02-28T08:50:31;29.05;;;11.73;;
54745;SDS011;40640;48.130;11.356;2023-02-28T08:54:34;21.25;;;12.10;;
54745;SDS011;40640;48.130;11.356;2023-02-28T08:58:38;22.42;;;12.30;;
54745;SDS011;40640;48.130;11.356;2023-02-28T09:02:41;21.63;;;12.25;;
54745;SDS011;40640;48.130;11.356;2023-02-28T09:06:46;23.33;;;12.02;;
54745;SDS011;40640;48.130;11.356;2023-02-28T09:10:50;22.73;;;11.88;;
54745;SDS011;40640;48.130;11.356;2023-02-28T09:14:53;27.58;;;11.68;;
54745;SDS011;40640;48.130;11.356;2023-02-28T09:18:56;20.27;;;12.40;;
54745;SDS011;40640;48.130;11.356;2023-02-28T09:23:00;22.33;;;12.02;;
54745;SDS011;40640;48.130;11.356;2023-02-28T09:27:03;22.33;;;11.13;;
54745;SDS011;40640;48.130;11.356;2023-02-28T09:31:10;21.83;;;11.35;;
54745;SDS011;40640;48.130;11.356;2023-02-28T09:35:15;26.17;;;13.05;;
54745;SDS011;40640;48.130;11.356;2023-02-28T09:39:19;16.42;;;9.20;;
54745;SDS011;40640;48.130;11.356;2023-02-28T09:43:23;22.55;;;11.38;;
54745;SDS011;40640;48.130;11.356;2023-02-28T09:47:29;23.27;;;12.18;;
54745;SDS011;40640;48.130;11.356;2023-02-28T09:51:41;25.20;;;13.35;;
54745;SDS011;40640;48.130;11.356;2023-02-28T09:55:51;19.55;;;11.60;;
54745;SDS011;40640;48.130;11.356;2023-02-28T10:00:01;22.25;;;11.85;;
54745;SDS011;40640;48.130;11.356;2023-02-28T10:08:21;17.15;;;9.27;;
54745;SDS011;40640;48.130;11.356;2023-02-28T10:12:29;19.40;;;11.65;;
54745;SDS011;40640;48.130;11.356;2023-02-28T10:16:35;17.00;;;10.75;;
54745;SDS011;40640;48.130;11.356;2023-02-28T10:20:42;18.38;;;11.38;;
54745;SDS011;40640;48.130;11.356;2023-02-28T10:24:47;21.95;;;10.68;;
54745;SDS011;40640;48.130;11.356;2023-02-28T10:28:54;16.50;;;9.68;;
54745;SDS011;40640;48.130;11.356;2023-02-28T10:32:56;21.58;;;11.68;;
54745;SDS011;40640;48.130;11.356;2023-02-28T10:36:59;18.50;;;10.45;;
54745;SDS011;40640;48.130;11.356;2023-02-28T10:41:09;21.50;;;10.07;;
54745;SDS011;40640;48.130;11.356;2023-02-28T10:45:15;20.45;;;11.20;;
54745;SDS011;40640;48.130;11.356;2023-02-28T10:49:20;18.48;;;11.25;;
54745;SDS011;40640;48.130;11.356;2023-02-28T10:53:28;22.08;;;11.65;;
54745;SDS011;40640;48.130;11.356;2023-02-28T10:57:56;23.92;;;11.70;;
54745;SDS011;40640;48.130;11.356;2023-02-28T11:02:01;21.88;;;11.43;;
54745;SDS011;40640;48.130;11.356;2023-02-28T11:06:05;19.63;;;11.02;;
54745;SDS011;40640;48.130;11.356;2023-02-28T11:10:16;22.00;;;12.70;;
54745;SDS011;40640;48.130;11.356;2023-02-28T11:14:24;16.52;;;11.57;;
54745;SDS011;40640;48.130;11.356;2023-02-28T11:18:30;20.73;;;11.13;;
54745;SDS011;40640;48.130;11.356;2023-02-28T11:22:38;18.80;;;10.27;;
54745;SDS011;40640;48.130;11.356;2023-02-28T11:26:47;17.15;;;10.02;;
54745;SDS011;40640;48.130;11.356;2023-02-28T11:30:59;22.35;;;12.40;;
54745;SDS011;40640;48.130;11.356;2023-02-28T11:35:14;18.15;;;11.80;;
54745;SDS011;40640;48.130;11.356;2023-02-28T11:39:24;17.63;;;11.65;;
54745;SDS011;40640;48.130;11.356;2023-02-28T11:43:30;19.27;;;10.95;;
54745;SDS011;40640;48.130;11.356;2023-02-28T11:47:43;19.85;;;11.00;;
54745;SDS011;40640;48.130;11.356;2023-02-28T11:51:52;19.33;;;11.68;;
54745;SDS011;40640;48.130;11.356;2023-02-28T11:56:01;27.55;;;12.80;;
54745;SDS011;40640;48.130;11.356;2023-02-28T12:00:11;16.67;;;10.60;;
54745;SDS011;40640;48.130;11.356;2023-02-28T12:04:33;14.45;;;10.35;;
54745;SDS011;40640;48.130;11.356;2023-02-28T12:08:49;17.02;;;9.85;;
54745;SDS011;40640;48.130;11.356;2023-02-28T12:13:07;14.07;;;9.40;;
54745;SDS011;40640;48.130;11.356;2023-02-28T12:17:22;12.55;;;9.27;;
54745;SDS011;40640;48.130;11.356;2023-02-28T12:21:37;12.55;;;8.63;;
54745;SDS011;40640;48.130;11.356;2023-02-28T12:25:56;12.73;;;8.60;;
54745;SDS011;40640;48.130;11.356;2023-02-28T12:30:12;16.90;;;9.07;;
54745;SDS011;40640;48.130;11.356;2023-02-28T12:34:20;10.32;;;8.73;;
54745;SDS011;40640;48.130;11.356;2023-02-28T12:38:28;14.50;;;9.38;;
54745;SDS011;40640;48.130;11.356;2023-02-28T12:42:40;12.77;;;9.23;;
54745;SDS011;40640;48.130;11.356;2023-02-28T12:46:48;11.07;;;9.45;;
54745;SDS011;40640;48.130;11.356;2023-02-28T12:50:53;11.98;;;8.27;;
54745;SDS011;40640;48.130;11.356;2023-02-28T12:54:58;11.82;;;9.25;;
54745;SDS011;40640;48.130;11.356;2023-02-28T12:59:12;13.68;;;9.52;;
54745;SDS011;40640;48.130;11.356;2023-02-28T13:03:27;12.68;;;9.55;;
54745;SDS011;40640;48.130;11.356;2023-02-28T13:08:04;14.02;;;9.25;;
54745;SDS011;40640;48.130;11.356;2023-02-28T13:12:28;15.40;;;9.13;;
54745;SDS011;40640;48.130;11.356;2023-02-28T13:16:53;13.20;;;9.05;;
54745;SDS011;40640;48.130;11.356;2023-02-28T13:20:59;15.57;;;9.02;;
54745;SDS011;40640;48.130;11.356;2023-02-28T13:25:04;17.92;;;9.48;;
54745;SDS011;40640;48.130;11.356;2023-02-28T13:29:56;15.25;;;9.48;;
54745;SDS011;40640;48.130;11.356;2023-02-28T13:34:05;11.55;;;7.95;;
54745;SDS011;40640;48.130;11.356;2023-02-28T13:38:23;15.60;;;9.32;;
54745;SDS011;40640;48.130;11.356;2023-02-28T13:42:34;15.40;;;9.38;;
54745;SDS011;40640;48.130;11.356;2023-02-28T13:51:38;15.18;;;9.82;;
54745;SDS011;40640;48.130;11.356;2023-02-28T13:55:44;15.57;;;10.10;;
54745;SDS011;40640;48.130;11.356;2023-02-28T13:59:54;14.45;;;9.43;;
54745;SDS011;40640;48.130;11.356;2023-02-28T14:04:25;17.23;;;9.63;;
54745;SDS011;40640;48.130;11.356;2023-02-28T14:08:52;18.88;;;11.52;;
54745;SDS011;40640;48.130;11.356;2023-02-28T14:12:59;15.15;;;10.05;;
54745;SDS011;40640;48.130;11.356;2023-02-28T14:17:04;16.77;;;10.20;;
54745;SDS011;40640;48.130;11.356;2023-02-28T14:21:12;14.70;;;9.82;;
54745;SDS011;40640;48.130;11.356;2023-02-28T14:25:25;17.30;;;10.15;;
54745;SDS011;40640;48.130;11.356;2023-02-28T14:29:44;17.48;;;10.27;;
54745;SDS011;40640;48.130;11.356;2023-02-28T14:34:22;18.45;;;9.40;;
54745;SDS011;40640;48.130;11.356;2023-02-28T14:38:39;15.27;;;9.65;;
54745;SDS011;40640;48.130;11.356;2023-02-28T14:42:54;17.05;;;9.32;;
54745;SDS011;40640;48.130;11.356;2023-02-28T14:46:59;21.13;;;11.20;;
54745;SDS011;40640;48.130;11.356;2023-02-28T14:51:07;12.55;;;9.15;;
54745;SDS011;40640;48.130;11.356;2023-02-28T14:55:12;14.88;;;9.45;;
54745;SDS011;40640;48.130;11.356;2023-02-28T14:59:26;17.77;;;9.85;;
54745;SDS011;40640;48.130;11.356;2023-02-28T15:03:31;16.63;;;9.30;;
54745;SDS011;40640;48.130;11.356;2023-02-28T15:07:35;15.40;;;8.98;;
54745;SDS011;40640;48.130;11.356;2023-02-28T15:11:39;13.90;;;8.95;;
54745;SDS011;40640;48.130;11.356;2023-02-28T15:15:44;18.65;;;9.57;;
54745;SDS011;40640;48.130;11.356;2023-02-28T15:20:10;14.77;;;9.30;;
54745;SDS011;40640;48.130;11.356;2023-02-28T15:24:16;15.02;;;9.32;;
54745;SDS011;40640;48.130;11.356;2023-02-28T15:28:25;14.00;;;9.00;;
54745;SDS011;40640;48.130;11.356;2023-02-28T15:32:30;15.45;;;10.02;;
54745;SDS011;40640;48.130;11.356;2023-02-28T15:36:34;19.15;;;9.70;;
54745;SDS011;40640;48.130;11.356;2023-02-28T15:40:40;15.05;;;8.75;;
54745;SDS011;40640;48.130;11.356;2023-02-28T15:44:45;15.50;;;9.45;;
54745;SDS011;40640;48.130;11.356;2023-02-28T15:48:51;15.50;;;8.65;;
54745;SDS011;40640;48.130;11.356;2023-02-28T15:52:56;15.15;;;9.48;;
54745;SDS011;40640;48.130;11.356;2023-02-28T15:57:01;15.10;;;9.85;;
54745;SDS011;40640;48.130;11.356;2023-02-28T16:01:15;16.08;;;9.70;;
54745;SDS011;40640;48.130;11.356;2023-02-28T16:05:23;21.98;;;9.63;;
54745;SDS011;40640;48.130;11.356;2023-02-28T16:09:31;16.75;;;9.38;;
54745;SDS011;40640;48.130;11.356;2023-02-28T16:13:35;15.38;;;9.95;;
54745;SDS011;40640;48.130;11.356;2023-02-28T16:17:38;18.95;;;10.30;;
54745;SDS011;40640;48.130;11.356;2023-02-28T16:21:43;17.33;;;9.98;;
54745;SDS011;40640;48.130;11.356;2023-02-28T16:25:47;18.23;;;9.50;;
54745;SDS011;40640;48.130;11.356;2023-02-28T16:29:50;22.55;;;10.38;;
54745;SDS011;40640;48.130;11.356;2023-02-28T16:33:52;22.27;;;11.57;;
54745;SDS011;40640;48.130;11.356;2023-02-28T16:37:59;22.05;;;9.95;;
54745;SDS011;40640;48.130;11.356;2023-02-28T16:42:02;17.38;;;10.15;;
54745;SDS011;40640;48.130;11.356;2023-02-28T16:46:05;18.60;;;10.00;;
54745;SDS011;40640;48.130;11.356;2023-02-28T16:50:12;17.90;;;10.68;;
54745;SDS011;40640;48.130;11.356;2023-02-28T16:54:19;25.40;;;10.50;;
54745;SDS011;40640;48.130;11.356;2023-02-28T16:58:21;24.35;;;10.00;;
54745;SDS011;40640;48.130;11.356;2023-02-28T17:02:26;22.73;;;11.02;;
54745;SDS011;40640;48.130;11.356;2023-02-28T17:06:29;20.25;;;10.60;;
54745;SDS011;40640;48.130;11.356;2023-02-28T17:10:34;21.50;;;10.80;;
54745;SDS011;40640;48.130;11.356;2023-02-28T17:14:37;17.92;;;10.00;;
54745;SDS011;40640;48.130;11.356;2023-02-28T17:18:40;18.83;;;10.65;;
54745;SDS011;40640;48.130;11.356;2023-02-28T17:22:43;24.98;;;12.05;;
54745;SDS011;40640;48.130;11.356;2023-02-28T17:26:47;22.13;;;11.25;;
54745;SDS011;40640;48.130;11.356;2023-02-28T17:30:51;22.10;;;11.60;;
54745;SDS011;40640;48.130;11.356;2023-02-28T17:34:53;16.92;;;10.65;;
54745;SDS011;40640;48.130;11.356;2023-02-28T17:38:56;24.10;;;10.93;;
54745;SDS011;40640;48.130;11.356;2023-02-28T17:43:01;19.65;;;11.10;;
54745;SDS011;40640;48.130;11.356;2023-02-28T17:47:04;20.55;;;11.43;;
54745;SDS011;40640;48.130;11.356;2023-02-28T17:51:08;24.90;;;12.50;;
54745;SDS011;40640;48.130;11.356;2023-02-28T17:55:13;25.77;;;13.95;;
54745;SDS011;40640;48.130;11.356;2023-02-28T17:59:17;25.75;;;13.95;;
54745;SDS011;40640;48.130;11.356;2023-02-28T18:03:20;28.85;;;14.45;;
54745;SDS011;40640;48.130;11.356;2023-02-28T18:07:23;24.42;;;14.63;;
54745;SDS011;40640;48.130;11.356;2023-02-28T18:11:27;26.70;;;15.07;;
54745;SDS011;40640;48.130;11.356;2023-02-28T18:15:44;27.20;;;14.65;;
54745;SDS011;40640;48.130;11.356;2023-02-28T18:19:48;32.08;;;15.40;;
54745;SDS011;40640;48.130;11.356;2023-02-28T18:23:51;27.83;;;15.52;;
54745;SDS011;40640;48.130;11.356;2023-02-28T18:27:54;29.17;;;15.70;;
54745;SDS011;40640;48.130;11.356;2023-02-28T18:32:00;32.30;;;16.65;;
54745;SDS011;40640;48.130;11.356;2023-02-28T18:36:04;28.55;;;15.48;;
54745;SDS011;40640;48.130;11.356;2023-02-28T18:40:08;34.05;;;15.38;;
54745;SDS011;40640;48.130;11.356;2023-02-28T18:44:12;29.90;;;15.07;;
54745;SDS011;40640;48.130;11.356;2023-02-28T18:48:22;29.88;;;16.50;;
54745;SDS011;40640;48.130;11.356;2023-02-28T18:52:26;30.27;;;16.00;;
54745;SDS011;40640;48.130;11.356;2023-02-28T18:56:28;26.40;;;16.17;;
54745;SDS011;40640;48.130;11.356;2023-02-28T19:00:32;32.50;;;15.32;;
54745;SDS011;40640;48.130;11.356;2023-02-28T19:04:36;27.05;;;16.27;;
54745;SDS011;40640;48.130;11.356;2023-02-28T19:08:42;37.67;;;20.10;;
54745;SDS011;40640;48.130;11.356;2023-02-28T19:12:45;32.25;;;17.98;;
54745;SDS011;40640;48.130;11.356;2023-02-28T19:16:48;31.27;;;17.35;;
54745;SDS011;40640;48.130;11.356;2023-02-28T19:20:53;141.00;;;69.70;;
54745;SDS011;40640;48.130;11.356;2023-02-28T19:24:56;46.15;;;22.25;;
54745;SDS011;40640;48.130;11.356;2023-02-28T19:29:00;35.13;;;17.88;;
54745;SDS011;40640;48.130;11.356;2023-02-28T19:33:04;35.17;;;19.55;;
54745;SDS011;40640;48.130;11.356;2023-02-28T19:37:08;33.53;;;18.67;;
54745;SDS011;40640;48.130;11.356;2023-02-28T19:41:11;40.42;;;17.52;;
54745;SDS011;40640;48.130;11.356;2023-02-28T19:45:16;32.30;;;17.58;;
54745;SDS011;40640;48.130;11.356;2023-02-28T19:49:19;32.35;;;18.75;;
54745;SDS011;40640;48.130;11.356;2023-02-28T19:53:23;43.03;;;19.63;;
54745;SDS011;40640;48.130;11.356;2023-02-28T19:57:27;36.25;;;18.20;;
54745;SDS011;40640;48.130;11.356;2023-02-28T20:01:30;35.42;;;16.95;;
54745;SDS011;40640;48.130;11.356;2023-02-28T20:05:33;30.05;;;16.80;;
54745;SDS011;40640;48.130;11.356;2023-02-28T20:09:37;36.05;;;18.75;;
54745;SDS011;40640;48.130;11.356;2023-02-28T20:13:41;33.45;;;18.08;;
54745;SDS011;40640;48.130;11.356;2023-02-28T20:17:44;32.22;;;18.38;;
54745;SDS011;40640;48.130;11.356;2023-02-28T20:21:47;29.75;;;15.50;;
54745;SDS011;40640;48.130;11.356;2023-02-28T20:25:52;26.48;;;13.50;;
54745;SDS011;40640;48.130;11.356;2023-02-28T20:29:54;24.40;;;12.45;;
54745;SDS011;40640;48.130;11.356;2023-02-28T20:33:57;30.45;;;14.85;;
54745;SDS011;40640;48.130;11.356;2023-02-28T20:38:00;25.33;;;13.82;;
54745;SDS011;40640;48.130;11.356;2023-02-28T20:42:04;29.38;;;14.43;;
54745;SDS011;40640;48.130;11.356;2023-02-28T20:46:07;25.80;;;14.10;;
54745;SDS011;40640;48.130;11.356;2023-02-28T20:50:11;28.38;;;14.40;;
54745;SDS011;40640;48.130;11.356;2023-02-28T20:54:14;28.67;;;15.20;;
54745;SDS011;40640;48.130;11.356;2023-02-28T20:58:18;31.63;;;15.88;;
54745;SDS011;40640;48.130;11.356;2023-02-28T21:02:21;24.42;;;13.85;;
54745;SDS011;40640;48.130;11.356;2023-02-28T21:06:25;26.88;;;14.57;;
54745;SDS011;40640;48.130;11.356;2023-02-28T21:10:30;22.83;;;13.17;;
54745;SDS011;40640;48.130;11.356;2023-02-28T21:14:34;32.42;;;13.95;;
54745;SDS011;40640;48.130;11.356;2023-02-28T21:18:37;28.98;;;15.40;;
54745;SDS011;40640;48.130;11.356;2023-02-28T21:22:41;27.38;;;14.43;;
54745;SDS011;40640;48.130;11.356;2023-02-28T21:26:44;30.27;;;14.30;;
54745;SDS011;40640;48.130;11.356;2023-02-28T21:30:48;25.60;;;13.95;;
54745;SDS011;40640;48.130;11.356;2023-02-28T21:34:52;28.58;;;14.55;;
54745;SDS011;40640;48.130;11.356;2023-02-28T21:38:56;29.38;;;14.75;;
54745;SDS011;40640;48.130;11.356;2023-02-28T21:43:01;25.13;;;15.00;;
54745;SDS011;40640;48.130;11.356;2023-02-28T21:47:05;26.65;;;13.48;;
54745;SDS011;40640;48.130;11.356;2023-02-28T21:51:10;25.02;;;14.05;;
54745;SDS011;40640;48.130;11.356;2023-02-28T21:59:17;25.38;;;14.27;;
54745;SDS011;40640;48.130;11.356;2023-02-28T22:03:22;26.15;;;13.68;;
54745;SDS011;40640;48.130;11.356;2023-02-28T22:07:25;24.80;;;14.48;;
54745;SDS011;40640;48.130;11.356;2023-02-28T22:11:27;28.52;;;13.50;;
54745;SDS011;40640;48.130;11.356;2023-02-28T22:15:34;25.95;;;13.73;;
54745;SDS011;40640;48.130;11.356;2023-02-28T22:19:38;26.70;;;14.23;;
54745;SDS011;40640;48.130;11.356;2023-02-28T22:23:42;27.98;;;14.80;;
54745;SDS011;40640;48.130;11.356;2023-02-28T22:27:45;25.50;;;13.10;;
54745;SDS011;40640;48.130;11.356;2023-02-28T22:31:48;22.17;;;13.02;;
54745;SDS011;40640;48.130;11.356;2023-02-28T22:35:53;21.15;;;10.70;;
54745;SDS011;40640;48.130;11.356;2023-02-28T22:39:56;24.10;;;14.27;;
54745;SDS011;40640;48.130;11.356;2023-02-28T22:44:00;27.55;;;15.00;;
54745;SDS011;40640;48.130;11.356;2023-02-28T22:48:05;24.67;;;13.77;;
54745;SDS011;40640;48.130;11.356;2023-02-28T22:52:10;25.13;;;14.35;;
54745;SDS011;40640;48.130;11.356;2023-02-28T22:56:14;22.40;;;14.10;;
54745;SDS011;40640;48.130;11.356;2023-02-28T23:00:18;27.20;;;14.25;;
54745;SDS011;40640;48.130;11.356;2023-02-28T23:04:21;27.65;;;14.32;;
54745;SDS011;40640;48.130;11.356;2023-02-28T23:08:27;25.92;;;14.07;;
54745;SDS011;40640;48.130;11.356;2023-02-28T23:12:30;25.83;;;13.10;;
54745;SDS011;40640;48.130;11.356;2023-02-28T23:16:34;24.15;;;13.70;;
54745;SDS011;40640;48.130;11.356;2023-02-28T23:20:39;28.27;;;14.68;;
54745;SDS011;40640;48.130;11.356;2023-02-28T23:24:43;32.45;;;15.13;;
54745;SDS011;40640;48.130;11.356;2023-02-28T23:28:46;28.70;;;15.38;;
54745;SDS011;40640;48.130;11.356;2023-02-28T23:32:48;26.67;;;14.98;;
54745;SDS011;40640;48.130;11.356;2023-02-28T23:36:52;28.13;;;13.98;;
54745;SDS011;40640;48.130;11.356;2023-02-28T23:40:57;25.20;;;12.82;;
54745;SDS011;40640;48.130;11.356;2023-02-28T23:45:00;26.50;;;15.15;;
54745;SDS011;40640;48.130;11.356;2023-02-28T23:49:03;25.67;;;14.43;;
54745;SDS011;40640;48.130;11.356;2023-02-28T23:53:05;32.70;;;15.38;;
54745;SDS011;40640;48.130;11.356;2023-02-28T23:57:09;24.27;;;14.52;;
